Time;durP1;ratioP1;P1;durP2;ratioP2;P2;SDS_P1;SDS_P2;PMS_P1;PMS_P2;Temp;Humidity;BMP_temperature;BMP_pressure;BME280_temperature;BME280_humidity;BME280_pressure;Samples;Min_cycle;Max_cycle;Signal;HPM_P1;HPM_P2
2022/08/30 00:01:23;;;;;;;12.37;5.33;;;;;;;17.58;75.93;101932.22;5182869;28;20565;-77
2022/08/30 00:03:54;;;;;;;6.87;4.60;;;;;;;17.52;76.52;101935.31;5168252;28;20512;-76
2022/08/30 00:06:27;;;;;;;9.70;5.53;;;;;;;17.51;77.19;101933.59;5167475;28;20046;-76
2022/08/30 00:08:59;;;;;;;11.23;5.10;;;;;;;17.43;77.01;101926.22;5168165;28;20050;-76
2022/08/30 00:11:30;;;;;;;8.20;5.30;;;;;;;17.48;76.99;101925.88;5167976;28;20030;-78
2022/08/30 00:14:01;;;;;;;11.47;4.70;;;;;;;17.34;77.38;101929.53;5168610;28;20043;-76
2022/08/30 00:16:33;;;;;;;11.60;5.30;;;;;;;17.28;78.44;101930.81;5167668;28;20034;-77
2022/08/30 00:19:04;;;;;;;9.60;5.07;;;;;;;17.17;79.22;101928.94;5168400;28;20445;-77
2022/08/30 00:21:35;;;;;;;9.13;5.30;;;;;;;17.25;78.76;101931.03;5166807;28;20034;-76
2022/08/30 00:24:07;;;;;;;15.03;5.67;;;;;;;17.37;78.26;101939.88;5168705;28;20057;-76
2022/08/30 00:26:38;;;;;;;10.33;5.80;;;;;;;17.26;79.34;101940.69;5166821;28;20030;-76
2022/08/30 00:29:09;;;;;;;9.83;5.70;;;;;;;17.24;79.02;101938.16;5167728;28;20026;-76
2022/08/30 00:31:41;;;;;;;12.87;4.33;;;;;;;17.21;79.81;101937.50;5167639;28;20031;-77
2022/08/30 00:34:12;;;;;;;13.47;5.83;;;;;;;17.19;79.66;101936.78;5168078;28;20034;-76
2022/08/30 00:36:44;;;;;;;12.47;5.00;;;;;;;17.34;78.93;101934.81;5167133;28;20502;-77
2022/08/30 00:39:15;;;;;;;9.83;5.00;;;;;;;17.23;79.99;101930.28;5167592;28;20084;-77
2022/08/30 00:41:47;;;;;;;6.73;4.77;;;;;;;17.14;80.60;101935.28;5167966;28;20039;-77
2022/08/30 00:44:19;;;;;;;9.97;5.60;;;;;;;17.24;80.89;101947.88;5168171;28;20035;-76
2022/08/30 00:46:50;;;;;;;8.80;4.90;;;;;;;17.21;81.07;101938.34;5167522;28;20042;-76
2022/08/30 00:49:22;;;;;;;12.83;6.03;;;;;;;17.13;81.55;101941.53;5168059;28;20031;-76
2022/08/30 00:51:54;;;;;;;10.23;5.23;;;;;;;17.11;82.01;101935.50;5166741;28;20031;-76
2022/08/30 00:54:26;;;;;;;10.40;4.93;;;;;;;17.19;81.88;101934.97;5167916;28;20435;-77
2022/08/30 00:56:58;;;;;;;8.83;4.50;;;;;;;17.22;81.98;101937.41;5167598;28;20061;-77
2022/08/30 00:59:30;;;;;;;10.50;4.33;;;;;;;17.32;81.56;101936.72;5167840;28;20030;-76
2022/08/30 01:02:02;;;;;;;9.23;5.10;;;;;;;17.16;82.45;101938.69;5168210;28;20041;-76
2022/08/30 01:04:36;;;;;;;9.23;5.03;;;;;;;17.26;81.90;101943.34;5167397;28;20026;-76
2022/08/30 01:07:07;;;;;;;8.23;4.20;;;;;;;17.32;81.44;101939.38;5168294;28;20038;-76
2022/08/30 01:09:39;;;;;;;10.43;5.53;;;;;;;17.20;82.51;101941.97;5169588;28;20054;-76
2022/08/30 01:12:10;;;;;;;10.93;5.13;;;;;;;17.26;82.14;101938.84;5171724;28;20113;-76
2022/08/30 01:14:42;;;;;;;10.33;4.70;;;;;;;17.34;81.78;101946.28;5180584;23;20067;-76
2022/08/30 01:17:14;;;;;;;6.27;4.80;;;;;;;17.30;81.97;101955.38;5151142;28;20484;-76
2022/08/30 01:19:57;;;;;;;8.33;4.60;;;;;;;17.28;82.28;101959.91;5151932;28;20034;-76
2022/08/30 01:22:47;;;;;;;7.93;4.57;;;;;;;17.40;81.72;101951.09;5150421;28;20077;-76
2022/08/30 01:25:23;;;;;;;8.30;4.57;;;;;;;17.27;82.82;101952.94;5149353;29;20445;-76
2022/08/30 01:28:00;;;;;;;11.53;5.33;;;;;;;17.34;81.94;101932.19;5151546;28;20149;-77
2022/08/30 01:30:32;;;;;;;7.77;4.63;;;;;;;17.23;82.83;101939.09;5150862;28;20039;-77
2022/08/30 01:33:04;;;;;;;8.20;4.73;;;;;;;17.20;82.84;101941.09;5151099;28;20090;-76
2022/08/30 01:35:59;;;;;;;8.27;4.60;;;;;;;17.33;81.71;101933.97;5150001;28;20450;-77
2022/08/30 01:38:35;;;;;;;8.53;4.63;;;;;;;17.19;83.10;101942.06;5156087;28;20097;-77
2022/08/30 01:41:14;;;;;;;11.03;4.47;;;;;;;17.26;82.25;101945.97;5151111;28;20401;-76
2022/08/30 01:43:46;;;;;;;9.67;5.07;;;;;;;17.02;84.10;101947.56;5151077;28;20474;-76
2022/08/30 01:46:21;;;;;;;9.93;4.03;;;;;;;17.16;82.79;101943.97;5150700;28;20037;-76
2022/08/30 01:48:55;;;;;;;6.60;4.07;;;;;;;17.03;84.48;101951.06;5149889;29;20035;-77
2022/08/30 01:51:27;;;;;;;11.57;5.32;;;;;;;16.97;84.82;101952.31;5149464;28;20054;-77
2022/08/30 01:53:59;;;;;;;12.10;5.00;;;;;;;17.03;83.91;101951.06;5151034;28;20106;-77
2022/08/30 01:56:30;;;;;;;7.23;4.57;;;;;;;16.92;84.71;101941.22;5150558;28;20106;-77
2022/08/30 01:59:02;;;;;;;11.23;4.97;;;;;;;16.84;85.35;101933.81;5151049;28;20031;-76
2022/08/30 02:01:35;;;;;;;7.97;5.07;;;;;;;17.00;84.55;101938.03;5150330;28;20031;-77
2022/08/30 02:04:08;;;;;;;12.80;5.53;;;;;;;16.93;85.27;101933.16;5151239;28;20035;-76
2022/08/30 02:06:40;;;;;;;9.17;4.40;;;;;;;16.88;85.50;101935.28;5149674;28;20030;-76
2022/08/30 02:09:11;;;;;;;8.20;4.90;;;;;;;16.75;85.92;101929.16;5150464;29;20023;-76
2022/08/30 02:11:43;;;;;;;10.57;5.07;;;;;;;16.77;86.35;101933.38;5150505;29;20059;-77
2022/08/30 02:14:14;;;;;;;10.23;4.83;;;;;;;16.79;86.13;101925.38;5149851;28;20047;-76
2022/08/30 02:16:47;;;;;;;15.60;5.40;;;;;;;16.75;86.15;101934.44;5150188;28;20038;-76
2022/08/30 02:19:18;;;;;;;11.37;4.77;;;;;;;16.76;86.43;101933.47;5149988;28;20635;-76
2022/08/30 02:21:49;;;;;;;12.37;4.90;;;;;;;16.72;86.57;101932.84;5148181;29;20027;-77
2022/08/30 02:24:21;;;;;;;9.10;4.70;;;;;;;16.73;86.05;101921.34;5149087;29;20071;-76
2022/08/30 02:26:53;;;;;;;9.67;5.00;;;;;;;16.87;85.21;101938.03;5150260;29;20019;-76
2022/08/30 02:29:25;;;;;;;6.23;4.67;;;;;;;16.92;84.57;101931.47;5148624;28;20078;-76
2022/08/30 02:31:56;;;;;;;12.20;5.53;;;;;;;16.73;85.63;101931.91;5150282;28;20066;-76
2022/08/30 02:34:27;;;;;;;7.87;4.60;;;;;;;16.71;86.19;101930.31;5149848;29;20054;-76
2022/08/30 02:36:59;;;;;;;7.97;5.10;;;;;;;16.73;86.15;101931.06;5149207;29;20031;-76
2022/08/30 02:39:31;;;;;;;7.77;4.73;;;;;;;16.63;86.56;101926.41;5150014;28;20043;-76
2022/08/30 02:42:02;;;;;;;11.20;5.57;;;;;;;16.68;86.43;101929.59;5148572;29;20043;-76
2022/08/30 02:44:33;;;;;;;10.67;5.50;;;;;;;16.59;86.97;101918.78;5149543;29;20031;-77
2022/08/30 02:47:05;;;;;;;7.10;5.00;;;;;;;16.63;86.84;101937.00;5149704;29;20027;-76
2022/08/30 02:49:37;;;;;;;11.03;5.07;;;;;;;16.57;87.55;101932.13;5149427;28;20027;-76
2022/08/30 02:52:08;;;;;;;8.93;5.33;;;;;;;16.55;87.83;101915.50;5149189;29;20024;-76
2022/08/30 02:54:39;;;;;;;8.67;5.30;;;;;;;16.60;87.36;101920.50;5149375;29;20030;-77
2022/08/30 02:57:12;;;;;;;8.80;5.33;;;;;;;16.54;87.32;101909.38;5149639;29;20027;-76
2022/08/30 02:59:44;;;;;;;7.47;5.23;;;;;;;16.37;88.70;101905.22;5149421;28;20035;-77
2022/08/30 03:02:16;;;;;;;11.87;5.23;;;;;;;16.45;88.15;101913.50;5149107;28;20089;-76
2022/08/30 03:04:48;;;;;;;8.60;4.70;;;;;;;16.34;88.81;101897.50;5149724;29;20059;-76
2022/08/30 03:07:19;;;;;;;5.63;5.03;;;;;;;16.43;87.92;101915.41;5148270;28;20737;-76
2022/08/30 03:09:51;;;;;;;11.27;6.03;;;;;;;16.49;87.43;101910.66;5149496;28;20123;-76
2022/08/30 03:12:24;;;;;;;8.07;5.67;;;;;;;16.23;89.75;101900.03;5149170;28;20032;-77
2022/08/30 03:14:55;;;;;;;10.57;6.10;;;;;;;16.26;89.65;101910.41;5149482;28;20035;-77
2022/08/30 03:17:26;;;;;;;10.77;6.00;;;;;;;16.31;89.64;101910.94;5149181;29;20107;-77
2022/08/30 03:19:59;;;;;;;6.07;4.90;;;;;;;16.29;90.01;101904.91;5148225;29;20392;-76
2022/08/30 03:22:31;;;;;;;6.90;5.40;;;;;;;16.34;89.12;101894.88;5149180;28;20041;-76
2022/08/30 03:25:03;;;;;;;9.27;4.80;;;;;;;16.39;89.45;101908.63;5147560;29;20035;-77
2022/08/30 03:27:36;;;;;;;10.73;4.97;;;;;;;16.47;88.85;101910.75;5148952;28;20047;-77
2022/08/30 03:30:08;;;;;;;11.70;6.20;;;;;;;16.32;89.65;101912.63;5146889;29;20045;-77
2022/08/30 03:32:40;;;;;;;7.13;5.20;;;;;;;16.43;88.94;101909.25;5148640;28;20038;-76
2022/08/30 03:35:13;;;;;;;8.50;5.50;;;;;;;16.47;88.77;101915.19;5148473;28;20043;-77
2022/08/30 03:37:45;;;;;;;6.77;5.00;;;;;;;16.41;88.63;101900.56;5148699;28;20049;-77
2022/08/30 03:40:19;;;;;;;14.23;6.37;;;;;;;16.35;89.34;101906.28;5149015;28;20038;-77
2022/08/30 03:42:50;;;;;;;;;;;;;;;16.66;85.97;101915.63;5149201;28;20779;-77
2022/08/30 03:45:22;;;;;;;9.80;5.33;;;;;;;16.31;89.28;101909.16;5147978;28;20013;-77
2022/08/30 03:47:53;;;;;;;9.20;5.23;;;;;;;16.34;88.96;101908.09;5148895;28;20046;-77
2022/08/30 03:50:24;;;;;;;10.40;5.77;;;;;;;16.27;89.21;101904.16;5147767;28;20049;-77
2022/08/30 03:52:56;;;;;;;15.80;6.20;;;;;;;16.18;90.43;101911.75;5148443;28;20544;-76
2022/08/30 03:55:29;;;;;;;8.50;5.70;;;;;;;16.07;91.35;101903.72;5147917;28;20031;-76
2022/08/30 03:58:00;;;;;;;6.77;5.87;;;;;;;16.10;91.35;101903.50;5149100;28;20035;-77
2022/08/30 04:00:32;;;;;;;7.53;6.13;;;;;;;16.09;91.51;101909.75;5146495;28;20027;-76
2022/08/30 04:03:03;;;;;;;8.33;5.70;;;;;;;16.19;90.40;101905.53;5148353;29;20070;-76
2022/08/30 04:05:34;;;;;;;7.20;5.93;;;;;;;16.07;91.37;101901.94;5146685;28;20055;-77
2022/08/30 04:08:06;;;;;;;9.63;6.00;;;;;;;16.17;91.40;101914.50;5148225;28;20039;-76
2022/08/30 04:10:37;;;;;;;8.60;6.00;;;;;;;16.23;90.33;101915.91;5148245;29;20168;-76
2022/08/30 04:13:09;;;;;;;9.83;6.47;;;;;;;16.24;90.20;101905.22;5147471;28;20033;-76
2022/08/30 04:15:40;;;;;;;11.20;7.67;;;;;;;15.98;92.03;101910.41;5146800;29;20187;-75
2022/08/30 04:18:12;;;;;;;13.27;7.23;;;;;;;16.07;92.13;101909.84;5148594;28;20089;-76
2022/08/30 04:20:43;;;;;;;8.73;6.60;;;;;;;16.02;92.35;101905.81;5146159;29;20394;-75
2022/08/30 04:23:14;;;;;;;9.40;6.63;;;;;;;15.93;92.76;101909.88;5147742;28;20031;-78
2022/08/30 04:25:46;;;;;;;8.87;6.87;;;;;;;15.93;93.49;101913.38;5146840;28;20027;-77
2022/08/30 04:28:17;;;;;;;10.57;6.70;;;;;;;16.01;92.82;101914.66;5147875;28;20066;-77
2022/08/30 04:30:49;;;;;;;9.33;6.67;;;;;;;16.01;92.93;101920.81;5148179;28;20039;-77
2022/08/30 04:33:20;;;;;;;12.50;6.50;;;;;;;15.97;93.01;101920.13;5148406;28;20114;-77
2022/08/30 04:35:51;;;;;;;9.03;6.23;;;;;;;15.96;93.97;101925.53;5147511;28;20106;-77
2022/08/30 04:38:22;;;;;;;7.90;6.57;;;;;;;15.90;94.36;101918.00;5148577;28;20032;-78
2022/08/30 04:40:54;;;;;;;9.70;6.60;;;;;;;15.97;94.17;101927.19;5150706;28;20045;-78
2022/08/30 04:43:25;;;;;;;8.57;6.57;;;;;;;16.07;93.54;101930.13;5150957;29;20039;-76
2022/08/30 04:45:57;;;;;;;8.97;6.90;;;;;;;15.94;94.02;101930.91;5152602;28;20059;-76
2022/08/30 04:48:28;;;;;;;8.93;6.77;;;;;;;16.07;93.13;101933.63;5152268;28;20689;-76
2022/08/30 04:51:06;;;;;;;7.87;7.13;;;;;;;16.02;93.49;101926.94;5150792;28;20019;-78
2022/08/30 04:53:37;;;;;;;9.77;7.80;;;;;;;15.84;94.77;101930.69;5151094;28;20478;-76
2022/08/30 04:56:11;;;;;;;10.47;8.90;;;;;;;15.87;95.22;101937.53;5152139;28;20074;-77
2022/08/30 04:58:44;;;;;;;12.43;8.02;;;;;;;15.81;95.97;101935.31;5151192;28;20054;-77
2022/08/30 05:01:19;;;;;;;10.67;8.10;;;;;;;16.01;94.04;101939.31;5151575;28;20023;-79
2022/08/30 05:03:52;;;;;;;9.07;8.17;;;;;;;15.83;95.94;101938.69;5151190;28;20466;-80
2022/08/30 05:06:29;;;;;;;11.02;7.85;;;;;;;15.76;96.75;101934.75;5151450;28;20035;-80
2022/08/30 05:09:01;;;;;;;13.27;8.77;;;;;;;15.63;97.97;101935.53;5153216;28;20031;-80
2022/08/30 05:11:32;;;;;;;12.63;8.67;;;;;;;15.68;98.89;101941.38;5150988;28;20031;-80
2022/08/30 05:14:04;;;;;;;13.03;8.77;;;;;;;15.60;100.00;101944.50;5151411;28;20059;-80
2022/08/30 05:16:35;;;;;;;11.77;8.27;;;;;;;15.67;100.00;101939.69;5150985;28;20027;-80
2022/08/30 05:19:06;;;;;;;13.17;8.87;;;;;;;15.60;100.00;101948.94;5150631;28;20165;-79
2022/08/30 05:21:39;;;;;;;11.70;9.00;;;;;;;15.59;100.00;101948.09;5152016;28;20021;-79
2022/08/30 05:24:10;;;;;;;12.00;9.23;;;;;;;15.53;100.00;101950.28;5154030;28;20033;-80
2022/08/30 05:26:42;;;;;;;9.87;8.97;;;;;;;15.71;100.00;101951.72;5153683;28;20086;-79
2022/08/30 05:29:13;;;;;;;13.50;9.03;;;;;;;15.65;100.00;101960.06;5148996;28;20109;-79
2022/08/30 05:31:44;;;;;;;16.27;9.20;;;;;;;15.69;100.00;101958.91;5151102;28;20513;-80
2022/08/30 05:34:16;;;;;;;12.07;9.03;;;;;;;15.69;100.00;101958.91;5148815;28;20470;-79
2022/08/30 05:36:47;;;;;;;16.60;9.87;;;;;;;15.68;100.00;101951.09;5151114;28;20804;-80
2022/08/30 05:39:18;;;;;;;19.53;9.63;;;;;;;15.96;100.00;101968.66;5152288;28;20473;-80
2022/08/30 05:41:49;;;;;;;17.50;10.57;;;;;;;15.87;100.00;101963.94;5150255;28;20038;-80
2022/08/30 05:44:21;;;;;;;16.20;10.13;;;;;;;15.78;100.00;101959.28;5151083;28;20034;-79
2022/08/30 05:46:52;;;;;;;17.77;10.43;;;;;;;15.83;100.00;101965.13;5151021;28;20031;-80
2022/08/30 05:49:23;;;;;;;19.10;11.73;;;;;;;15.82;100.00;101958.97;5150880;29;20036;-80
2022/08/30 05:51:55;;;;;;;13.93;10.17;;;;;;;15.85;100.00;101957.91;5148596;28;20039;-80
2022/08/30 05:54:27;;;;;;;19.93;10.77;;;;;;;15.88;100.00;101957.75;5151425;28;20398;-81
2022/08/30 05:56:58;;;;;;;19.30;10.37;;;;;;;15.89;100.00;101948.84;5150524;28;20019;-82
2022/08/30 05:59:30;;;;;;;21.37;10.73;;;;;;;15.80;100.00;101945.00;5149913;28;20039;-82
2022/08/30 06:02:02;;;;;;;27.70;11.07;;;;;;;15.96;100.00;101957.22;5150032;28;20035;-82
2022/08/30 06:04:35;;;;;;;20.67;10.47;;;;;;;15.91;100.00;101968.09;5149079;28;20031;-82
2022/08/30 06:07:06;;;;;;;21.13;10.77;;;;;;;15.94;100.00;101956.47;5150220;28;20030;-79
2022/08/30 06:09:38;;;;;;;27.97;11.33;;;;;;;16.07;98.99;101949.50;5150082;28;20031;-82
2022/08/30 06:12:09;;;;;;;28.90;12.23;;;;;;;16.05;100.00;101959.31;5153342;28;20038;-80
2022/08/30 06:14:40;;;;;;;20.80;11.20;;;;;;;16.11;98.90;101954.56;5151374;28;20093;-81
2022/08/30 06:17:11;;;;;;;23.53;10.90;;;;;;;16.23;98.63;101963.47;5149979;28;20038;-80
2022/08/30 06:19:43;;;;;;;13.93;11.33;;;;;;;16.13;99.49;101965.88;5149380;28;20031;-81
2022/08/30 06:22:14;;;;;;;14.17;10.50;;;;;;;16.17;99.08;101962.06;5149697;28;20030;-81
2022/08/30 06:24:45;;;;;;;17.43;10.77;;;;;;;16.27;98.21;101968.44;5150423;28;20043;-81
2022/08/30 06:27:17;;;;;;;14.40;11.30;;;;;;;16.30;98.32;101951.56;5148289;28;20035;-80
2022/08/30 06:29:51;;;;;;;14.97;10.63;;;;;;;16.50;96.35;101959.91;5149686;28;20685;-86
2022/08/30 06:32:23;;;;;;;13.83;10.60;;;;;;;16.40;97.11;101947.34;5150302;28;20044;-85
2022/08/30 06:34:54;;;;;;;12.50;11.30;;;;;;;16.44;97.34;101954.09;5151793;28;20035;-86
2022/08/30 06:37:26;;;;;;;12.17;10.73;;;;;;;16.43;97.21;101962.13;5149759;28;20041;-83
2022/08/30 06:39:59;;;;;;;20.07;10.47;;;;;;;16.53;96.01;101959.75;5148913;28;20492;-84
2022/08/30 06:42:32;;;;;;;13.97;11.30;;;;;;;16.52;96.05;101953.59;5149298;29;20031;-85
2022/08/30 06:45:04;;;;;;;14.20;11.07;;;;;;;16.50;97.37;101951.97;5148019;28;20059;-82
2022/08/30 06:47:35;;;;;;;13.40;10.60;;;;;;;16.70;94.38;101961.22;5148640;28;20058;-81
2022/08/30 06:50:08;;;;;;;12.70;11.43;;;;;;;16.72;94.95;101963.75;5149364;28;20560;-71
2022/08/30 06:52:41;;;;;;;12.20;10.27;;;;;;;16.72;94.36;101953.19;5149818;28;20032;-77
2022/08/30 06:55:16;;;;;;;13.88;9.95;;;;;;;16.79;94.05;101951.81;5149812;29;20799;-74
2022/08/30 06:57:47;;;;;;;10.87;9.77;;;;;;;16.87;93.55;101954.78;5149544;28;20106;-82
2022/08/30 07:00:19;;;;;;;12.27;10.03;;;;;;;16.79;93.46;101946.53;5150161;29;20474;-84
2022/08/30 07:02:50;;;;;;;14.63;9.87;;;;;;;16.95;92.79;101954.22;5149025;28;20030;-84
2022/08/30 07:05:22;;;;;;;11.27;9.50;;;;;;;17.07;92.17;101954.34;5149502;28;20015;-85
2022/08/30 07:07:53;;;;;;;16.30;10.23;;;;;;;17.03;90.77;101957.22;5149360;28;20106;-84
2022/08/30 07:10:25;;;;;;;10.60;8.80;;;;;;;17.15;89.26;101954.66;5149197;28;20459;-85
2022/08/30 07:12:56;;;;;;;9.53;7.87;;;;;;;17.38;89.23;101966.28;5149520;28;20033;-83
2022/08/30 07:15:27;;;;;;;13.50;8.23;;;;;;;17.41;87.82;101947.53;5148602;28;20031;-81
2022/08/30 07:20:48;;;;;;;10.27;8.60;;;;;;;17.88;85.54;101965.38;5149024;28;20047;-77
2022/08/30 07:23:20;;;;;;;10.40;8.10;;;;;;;17.95;83.49;101980.81;5148810;29;20478;-78
2022/08/30 07:25:51;;;;;;;12.67;7.50;;;;;;;18.00;82.99;101978.66;5149074;28;20255;-77
2022/08/30 07:28:22;;;;;;;10.80;7.47;;;;;;;18.19;80.87;101972.88;5149018;28;20494;-75
2022/08/30 07:30:53;;;;;;;10.77;8.00;;;;;;;18.28;80.66;101965.19;5148765;29;20490;-74
2022/08/30 07:33:25;;;;;;;12.37;8.03;;;;;;;18.27;79.77;101964.34;5148718;29;20567;-75
2022/08/30 07:35:58;;;;;;;10.77;7.00;;;;;;;18.37;79.79;101969.81;5148117;29;20035;-74
2022/08/30 07:38:29;;;;;;;10.57;7.50;;;;;;;18.48;78.46;101972.47;5150996;28;20591;-74
2022/08/30 07:41:01;;;;;;;8.33;7.03;;;;;;;18.65;77.60;101974.81;5149475;28;20051;-75
2022/08/30 07:43:33;;;;;;;7.97;6.73;;;;;;;18.82;76.95;101966.41;5148365;28;20110;-75
2022/08/30 07:46:06;;;;;;;11.73;7.90;;;;;;;19.19;75.66;101980.44;5148690;29;20030;-75
2022/08/30 07:48:37;;;;;;;12.10;7.33;;;;;;;19.50;72.13;101971.81;5148274;28;20019;-75
2022/08/30 07:51:15;;;;;;;12.80;7.63;;;;;;;20.19;71.54;101967.19;5146923;29;20031;-74
2022/08/30 07:53:47;;;;;;;9.90;7.03;;;;;;;20.65;67.44;101967.75;5146204;29;20031;-75
2022/08/30 07:56:19;;;;;;;8.15;6.65;;;;;;;20.89;66.21;101968.44;5148211;28;20079;-75
2022/08/30 07:58:50;;;;;;;10.23;6.80;;;;;;;21.02;65.32;101966.41;5148168;28;20027;-75
2022/08/30 08:01:22;;;;;;;9.55;5.50;;;;;;;21.07;64.82;101975.84;5147799;28;20023;-75
2022/08/30 08:03:53;;;;;;;8.05;5.95;;;;;;;21.33;63.90;101976.19;5148760;28;20034;-75
2022/08/30 08:06:26;;;;;;;10.02;5.72;;;;;;;21.83;63.21;101978.97;5145818;28;20106;-75
2022/08/30 08:09:01;;;;;;;7.20;6.45;;;;;;;22.16;60.98;101981.38;5148987;28;20026;-75
2022/08/30 08:11:33;;;;;;;11.60;6.00;;;;;;;22.39;60.15;101979.25;5147746;28;20035;-74
2022/08/30 08:14:05;;;;;;;6.78;6.05;;;;;;;22.74;59.35;101976.09;5148614;28;20084;-74
2022/08/30 08:16:37;;;;;;;6.70;5.00;;;;;;;22.60;58.98;101975.56;5148865;28;20058;-74
2022/08/30 08:19:09;;;;;;;8.45;5.82;;;;;;;22.67;59.15;101982.00;5147754;28;20026;-74
2022/08/30 08:21:40;;;;;;;12.13;5.63;;;;;;;23.08;57.22;101973.72;5148071;29;20031;-74
2022/08/30 08:24:12;;;;;;;10.25;5.60;;;;;;;22.99;57.47;101971.09;5146904;29;20038;-74
2022/08/30 08:26:43;;;;;;;10.60;5.00;;;;;;;23.29;56.42;101982.47;5148170;29;20651;-74
2022/08/30 08:29:14;;;;;;;7.65;5.45;;;;;;;22.99;56.67;101984.44;5147674;28;20475;-75
2022/08/30 08:31:46;;;;;;;6.63;5.18;;;;;;;23.00;56.57;101984.31;5148205;29;20040;-75
2022/08/30 08:34:21;;;;;;;9.90;5.22;;;;;;;23.14;56.38;101974.97;5146780;29;20077;-75
2022/08/30 08:36:53;;;;;;;8.50;5.03;;;;;;;23.44;54.71;101985.53;5148033;28;20222;-75
2022/08/30 08:39:24;;;;;;;8.38;5.20;;;;;;;23.48;54.71;101988.72;5147789;28;20106;-75
2022/08/30 08:42:11;;;;;;;7.95;5.22;;;;;;;23.86;54.89;101993.97;5147069;28;20473;-75
2022/08/30 08:44:49;;;;;;;10.95;5.30;;;;;;;24.65;52.40;101987.88;5147552;28;20063;-76
2022/08/30 08:47:36;;;;;;;10.23;4.60;;;;;;;24.96;52.81;101991.94;5147549;28;20079;-75
2022/08/30 08:50:13;;;;;;;6.30;3.75;;;;;;;25.27;50.03;101996.75;5147408;29;20035;-78
2022/08/30 08:55:45;;;;;;;8.10;3.35;;;;;;;25.62;49.04;101981.41;5151340;28;20615;-78
2022/08/30 08:58:29;;;;;;;6.85;3.30;;;;;;;25.96;49.05;101989.53;5148766;28;20429;-79
2022/08/30 09:01:00;;;;;;;4.75;3.25;;;;;;;26.20;47.20;101990.53;5168350;28;20023;-78
2022/08/30 09:03:31;;;;;;;6.65;3.50;;;;;;;26.53;46.21;101989.69;5148753;28;20034;-79
2022/08/30 09:06:21;;;;;;;8.90;2.88;;;;;;;26.85;44.63;101993.28;5146244;29;20203;-78
2022/08/30 09:08:53;;;;;;;4.13;2.58;;;;;;;26.88;44.05;101981.38;5133637;29;20058;-80
2022/08/30 09:11:31;;;;;;;5.50;2.30;;;;;;;27.35;44.27;101992.28;5144938;29;20390;-81
2022/08/30 09:14:07;;;;;;;9.20;2.20;;;;;;;27.26;42.86;101997.69;5138388;29;20063;-81
2022/08/30 09:17:09;;;;;;;4.53;2.53;;;;;;;27.61;42.76;101985.72;5140435;28;20039;-77
2022/08/30 09:19:57;;;;;;;7.45;2.25;;;;;;;28.09;42.01;102000.84;5163734;28;20067;-75
2022/08/30 09:22:36;;;;;;;15.60;2.40;;;;;;;28.14;41.33;101995.75;5157927;28;20035;-76
2022/08/30 09:25:10;;;;;;;4.43;2.15;;;;;;;28.64;39.93;101989.91;5148082;28;20039;-76
2022/08/30 09:27:44;;;;;;;6.93;1.83;;;;;;;28.90;38.39;101975.13;5149729;28;20035;-76
2022/08/30 09:30:28;;;;;;;4.22;2.30;;;;;;;29.78;37.08;101994.16;5147567;29;20072;-79
2022/08/30 09:33:02;;;;;;;3.28;1.75;;;;;;;29.12;38.12;101991.38;5131309;29;20391;-78
2022/08/30 09:35:48;;;;;;;3.70;1.60;;;;;;;29.82;38.52;101996.31;5139506;28;20526;-77
2022/08/30 09:38:28;;;;;;;4.68;1.95;;;;;;;30.13;37.41;101994.25;5167967;28;20090;-74
2022/08/30 09:41:21;;;;;;;5.15;1.92;;;;;;;29.98;36.50;101983.56;5164997;28;20073;-73
2022/08/30 09:44:04;;;;;;;4.20;2.10;;;;;;;30.54;36.42;101984.59;5145244;28;20052;-74
2022/08/30 09:46:51;;;;;;;7.13;2.07;;;;;;;30.57;36.33;101996.03;5136690;28;20023;-75
2022/08/30 09:49:41;;;;;;;8.15;1.80;;;;;;;31.02;36.07;101990.25;5137482;28;20306;-74
2022/08/30 09:52:19;;;;;;;3.92;1.70;;;;;;;30.77;34.95;101998.84;5140089;28;20043;-76
2022/08/30 09:55:20;;;;;;;6.50;1.70;;;;;;;31.47;34.28;101997.88;5140921;29;20054;-73
2022/08/30 09:58:13;;;;;;;6.80;1.80;;;;;;;30.18;34.53;101999.91;5141970;28;20074;-79
2022/08/30 10:01:13;;;;;;;4.95;1.75;;;;;;;31.47;34.49;101999.78;5140160;29;20094;-75
2022/08/30 10:04:10;;;;;;;6.53;1.60;;;;;;;31.35;34.85;101989.50;5137401;28;20055;-75
2022/08/30 10:07:19;;;;;;;8.82;2.13;;;;;;;30.88;33.62;101998.31;5139055;29;20027;-73
2022/08/30 10:10:02;;;;;;;3.75;1.50;;;;;;;31.60;33.25;101988.97;5117795;29;20056;-75
2022/08/30 10:13:03;;;;;;;6.60;1.85;;;;;;;31.42;33.91;101994.16;5101716;29;21529;-75
2022/08/30 10:15:44;;;;;;;5.88;1.80;;;;;;;31.22;32.77;101993.03;5106944;29;20059;-75
2022/08/30 10:18:34;;;;;;;4.43;1.55;;;;;;;31.59;33.29;101987.28;5140548;28;20051;-77
2022/08/30 10:21:24;;;;;;;3.00;1.35;;;;;;;31.78;33.66;101984.81;5139658;28;20041;-78
2022/08/30 10:24:08;;;;;;;3.83;1.48;;;;;;;31.60;33.50;101988.13;5139856;28;20050;-78
2022/08/30 10:27:01;;;;;;;2.50;1.33;;;;;;;31.60;33.04;101988.13;5140583;28;20070;-78
2022/08/30 10:29:44;;;;;;;8.55;1.75;;;;;;;30.76;32.63;101983.66;5139311;28;20769;-77
2022/08/30 10:32:23;;;;;;;;;;;;;;;32.44;32.86;101986.84;5140698;28;20039;-75
2022/08/30 10:35:01;;;;;;;5.60;1.60;;;;;;;30.86;32.79;101972.50;5139238;28;19914;-76
2022/08/30 10:37:39;;;;;;;3.92;1.73;;;;;;;30.60;33.03;101980.25;5137857;28;20051;-75
2022/08/30 10:43:30;;;;;;;8.07;1.65;;;;;;;30.93;32.87;101988.75;5138834;29;20532;-79
2022/08/30 10:46:08;;;;;;;4.70;1.30;;;;;;;30.78;33.36;101992.41;5139507;28;20842;-78
2022/08/30 10:48:43;;;;;;;3.65;1.50;;;;;;;30.76;32.54;101984.50;5138779;28;20077;-78
2022/08/30 10:51:32;;;;;;;2.10;1.52;;;;;;;30.69;33.25;101978.22;5139528;28;20398;-75
2022/08/30 10:54:19;;;;;;;6.80;2.03;;;;;;;30.76;33.58;101984.50;5139409;28;20046;-75
2022/08/30 10:56:53;;;;;;;5.45;1.55;;;;;;;30.23;33.34;101976.91;5139177;28;20051;-75
2022/08/30 10:59:25;;;;;;;8.65;1.52;;;;;;;29.82;33.55;101976.56;5138822;28;20043;-74
2022/08/30 11:02:21;;;;;;;10.82;1.65;;;;;;;30.10;33.28;101980.31;5139668;29;20035;-76
2022/08/30 11:05:27;;;;;;;4.05;1.80;;;;;;;29.82;34.91;101969.31;5138067;28;20057;-75
2022/08/30 11:08:26;;;;;;;6.72;1.40;;;;;;;30.52;33.71;101967.75;5131982;28;21379;-75
2022/08/30 11:11:31;;;;;;;4.82;1.33;;;;;;;29.95;34.98;101968.56;5152352;28;20395;-76
2022/08/30 11:14:05;;;;;;;4.65;1.45;;;;;;;29.65;34.86;101967.91;5138001;28;20280;-77
2022/08/30 11:16:47;;;;;;;4.13;1.40;;;;;;;29.59;35.32;101974.84;5139464;28;20126;-76
2022/08/30 11:19:23;;;;;;;2.58;1.60;;;;;;;29.54;35.15;101966.50;5137525;28;20062;-76
2022/08/30 11:22:20;;;;;;;8.25;1.95;;;;;;;29.65;35.16;101962.50;5139156;28;20066;-76
2022/08/30 11:24:59;;;;;;;2.65;1.27;;;;;;;30.07;34.48;101970.75;5138219;28;20058;-76
2022/08/30 11:27:46;;;;;;;20.38;1.90;;;;;;;29.59;34.80;101980.25;5138054;28;20686;-75
2022/08/30 11:30:40;;;;;;;8.02;1.80;;;;;;;29.67;34.86;101968.53;5152789;28;20045;-77
2022/08/30 11:33:32;;;;;;;7.72;1.85;;;;;;;29.16;34.88;101959.47;5131188;28;20080;-76
2022/08/30 11:36:03;;;;;;;10.48;2.35;;;;;;;29.59;34.60;101958.66;5130222;28;20661;-77
2022/08/30 11:38:34;;;;;;;9.52;1.75;;;;;;;29.34;34.81;101959.06;5137623;29;20671;-77
2022/08/30 11:41:10;;;;;;;5.13;1.50;;;;;;;29.09;35.02;101972.88;5140995;29;20019;-77
2022/08/30 11:43:41;;;;;;;4.43;1.58;;;;;;;29.19;35.19;101959.09;5141477;28;20031;-77
2022/08/30 11:46:18;;;;;;;4.60;1.63;;;;;;;28.77;35.23;101958.75;5142916;29;20023;-77
2022/08/30 11:48:53;;;;;;;5.35;1.50;;;;;;;28.74;35.32;101952.75;5146192;28;20509;-77
2022/08/30 11:51:37;;;;;;;3.78;1.35;;;;;;;29.19;34.80;101967.19;5155843;28;20033;-77
2022/08/30 11:54:19;;;;;;;4.25;1.58;;;;;;;29.16;34.58;101948.69;5167888;28;20045;-77
2022/08/30 11:57:09;;;;;;;6.25;1.52;;;;;;;29.42;34.42;101945.44;5149351;28;20094;-76
2022/08/30 11:59:58;;;;;;;4.80;1.63;;;;;;;29.00;35.58;101937.09;5147416;29;20031;-76
2022/08/30 12:02:54;;;;;;;8.38;1.40;;;;;;;29.25;34.89;101936.78;5148933;28;20023;-76
2022/08/30 12:05:34;;;;;;;5.07;1.60;;;;;;;28.46;36.16;101933.69;5136645;28;20130;-76
2022/08/30 12:08:07;;;;;;;7.38;2.45;;;;;;;28.58;34.69;101932.22;5138128;28;20019;-78